createdAt,value
2019-04-16T00:02:51.379Z,22.00
2019-04-16T00:06:04.424Z,22.37
2019-04-16T00:09:24.706Z,22.10
2019-04-16T00:12:31.479Z,21.07
2019-04-16T00:15:33.346Z,21.93
2019-04-16T00:18:35.351Z,22.13
2019-04-16T00:21:48.387Z,23.13
2019-04-16T00:24:50.449Z,23.17
2019-04-16T00:27:52.319Z,24.30
2019-04-16T00:30:54.234Z,21.53
2019-04-16T00:33:56.111Z,21.17
2019-04-16T00:36:58.016Z,22.67
2019-04-16T00:39:59.947Z,29.03
2019-04-16T00:43:02.040Z,26.27
2019-04-16T00:46:08.052Z,24.17
2019-04-16T00:49:09.155Z,26.10
2019-04-16T00:52:11.071Z,23.53
2019-04-16T00:55:14.578Z,20.47
2019-04-16T00:58:19.485Z,22.53
2019-04-16T01:01:20.820Z,20.47
2019-04-16T01:04:22.761Z,22.90
2019-04-16T01:07:24.699Z,22.83
2019-04-16T01:10:26.590Z,22.77
2019-04-16T01:13:28.635Z,25.53
2019-04-16T01:16:33.002Z,23.90
2019-04-16T01:19:34.466Z,24.40
2019-04-16T01:22:36.346Z,25.10
2019-04-16T01:25:38.318Z,23.00
2019-04-16T01:28:50.805Z,22.70
2019-04-16T01:32:00.711Z,24.57
2019-04-16T01:35:06.264Z,23.70
2019-04-16T01:38:16.008Z,24.53
2019-04-16T01:41:21.674Z,25.23
2019-04-16T01:44:23.076Z,22.97
2019-04-16T01:47:25.060Z,22.47
2019-04-16T01:50:27.116Z,21.97
2019-04-16T01:53:29.012Z,22.10
2019-04-16T01:56:31.023Z,21.83
2019-04-16T01:59:35.618Z,22.90
2019-04-16T02:02:36.844Z,23.73
2019-04-16T02:05:38.726Z,22.53
2019-04-16T02:08:40.702Z,24.20
2019-04-16T02:11:42.559Z,22.27
2019-04-16T02:14:44.585Z,25.63
2019-04-16T02:17:46.540Z,26.13
2019-04-16T02:20:48.443Z,24.37
2019-04-16T02:23:50.418Z,23.27
2019-04-16T02:26:54.802Z,26.00
2019-04-16T02:29:58.513Z,25.70
2019-04-16T02:33:00.537Z,24.60
2019-04-16T02:36:02.753Z,23.73
2019-04-16T02:39:07.307Z,23.27
2019-04-16T02:42:09.236Z,21.20
2019-04-16T02:45:12.382Z,22.80
2019-04-16T02:48:16.646Z,21.57
2019-04-16T02:51:29.114Z,35.60
2019-04-16T02:54:34.476Z,36.13
2019-04-16T02:57:44.616Z,28.10
2019-04-16T03:00:50.474Z,25.40
2019-04-16T03:04:02.995Z,27.27
2019-04-16T03:07:05.002Z,24.13
2019-04-16T03:10:12.286Z,23.17
2019-04-16T03:13:11.625Z,25.93
2019-04-16T03:16:21.226Z,33.03
2019-04-16T03:19:25.075Z,52.43
2019-04-16T03:22:26.981Z,33.33
2019-04-16T03:25:29.625Z,28.27
2019-04-16T03:28:31.661Z,29.33
2019-04-16T03:31:33.560Z,28.30
2019-04-16T03:34:35.465Z,29.40
2019-04-16T03:37:37.408Z,27.80
2019-04-16T03:40:39.348Z,35.60
2019-04-16T03:43:41.344Z,32.13
2019-04-16T03:46:45.970Z,30.47
2019-04-16T03:49:47.199Z,30.17
2019-04-16T03:52:49.200Z,26.37
2019-04-16T03:55:51.179Z,25.93
2019-04-16T03:58:54.110Z,27.50
2019-04-16T04:01:56.058Z,23.73
2019-04-16T04:05:01.664Z,24.00
2019-04-16T04:08:02.238Z,24.67
2019-04-16T04:11:09.057Z,24.17
2019-04-16T04:14:08.026Z,23.13
2019-04-16T04:17:10.350Z,22.37
2019-04-16T04:20:14.666Z,23.47
2019-04-16T04:23:17.186Z,40.20
2019-04-16T04:26:19.460Z,38.77
2019-04-16T04:29:24.774Z,32.33
2019-04-16T04:32:25.343Z,29.03
2019-04-16T04:35:27.258Z,27.17
2019-04-16T04:38:29.237Z,26.07
2019-04-16T04:41:31.773Z,22.53
2019-04-16T04:44:36.949Z,23.30
2019-04-16T04:47:37.702Z,21.60
2019-04-16T04:50:39.609Z,22.87
2019-04-16T04:53:41.548Z,22.27
2019-04-16T04:56:43.436Z,22.33
2019-04-16T04:59:45.473Z,23.67
2019-04-16T05:02:48.382Z,21.50
2019-04-16T05:05:53.370Z,23.27
2019-04-16T05:08:57.576Z,21.60
2019-04-16T05:11:59.881Z,21.03
2019-04-16T05:15:03.900Z,26.27
2019-04-16T05:18:06.130Z,22.03
2019-04-16T05:21:09.684Z,21.83
2019-04-16T05:24:11.993Z,21.07
2019-04-16T05:27:13.906Z,22.80
2019-04-16T05:30:20.420Z,23.93
2019-04-16T05:33:19.827Z,22.77
2019-04-16T05:36:22.126Z,21.93
2019-04-16T05:39:28.371Z,20.97
2019-04-16T05:42:30.274Z,21.27
2019-04-16T05:45:34.531Z,21.07
2019-04-16T05:48:36.509Z,21.33
2019-04-16T05:51:38.695Z,23.27
2019-04-16T05:55:01.574Z,22.50
2019-04-16T05:58:04.006Z,22.30
2019-04-16T06:01:13.115Z,22.20
2019-04-16T06:04:14.453Z,21.87
2019-04-16T06:07:16.384Z,21.73
2019-04-16T06:10:19.197Z,23.17
2019-04-16T06:13:29.352Z,23.07
2019-04-16T06:16:53.403Z,24.10
2019-04-16T06:20:01.916Z,25.37
2019-04-16T06:23:06.933Z,25.83
2019-04-16T06:26:27.588Z,24.40
2019-04-16T06:29:47.113Z,26.67
2019-04-16T06:32:51.393Z,28.07
2019-04-16T06:35:55.442Z,26.53
2019-04-16T06:39:01.982Z,25.90
2019-04-16T06:42:22.505Z,27.73
2019-04-16T06:45:28.115Z,29.03
2019-04-16T06:48:49.673Z,28.23
2019-04-16T06:51:53.565Z,27.30
2019-04-16T06:55:06.558Z,27.00
2019-04-16T06:58:12.587Z,26.70
2019-04-16T07:01:37.341Z,27.30
2019-04-16T07:04:42.781Z,29.87
2019-04-16T07:07:47.022Z,27.93
2019-04-16T07:10:56.583Z,28.77
2019-04-16T07:13:58.610Z,27.73
2019-04-16T07:17:00.904Z,28.77
2019-04-16T07:20:06.703Z,24.70
2019-04-16T07:23:08.774Z,28.27
2019-04-16T07:26:13.861Z,24.20
2019-04-16T07:29:16.437Z,25.90
2019-04-16T07:32:35.653Z,25.63
2019-04-16T07:35:48.600Z,25.67
2019-04-16T07:39:05.020Z,25.47
2019-04-16T07:42:14.127Z,29.00
2019-04-16T07:45:35.665Z,31.67
2019-04-16T07:48:45.372Z,28.07
2019-04-16T07:51:55.246Z,27.83
2019-04-16T07:54:59.063Z,19.17
2019-04-16T07:58:01.093Z,14.37
2019-04-16T08:01:03.259Z,15.23
2019-04-16T08:04:05.232Z,14.60
2019-04-16T08:07:07.182Z,13.33
2019-04-16T08:10:09.742Z,10.70
2019-04-16T08:13:19.170Z,9.40
2019-04-16T08:16:21.165Z,9.67
2019-04-16T08:19:36.046Z,8.77
2019-04-16T08:22:27.126Z,8.17
2019-04-16T08:25:33.907Z,8.13
2019-04-16T08:28:37.300Z,8.60
2019-04-16T08:31:44.487Z,8.40
2019-04-16T08:34:44.936Z,7.77
2019-04-16T08:37:49.128Z,9.43
2019-04-16T08:40:50.935Z,7.43
2019-04-16T08:43:52.913Z,8.20
2019-04-16T08:46:54.936Z,6.87
2019-04-16T08:49:57.555Z,6.40
2019-04-16T08:52:59.477Z,7.27
2019-04-16T08:56:01.532Z,6.37
2019-04-16T08:59:03.407Z,6.63
2019-04-16T09:02:05.485Z,8.00
2019-04-16T09:05:11.322Z,7.37
2019-04-16T09:08:22.768Z,6.73
2019-04-16T09:11:24.813Z,6.77
2019-04-16T09:14:28.619Z,6.27
2019-04-16T09:17:32.378Z,7.17
2019-04-16T09:20:37.783Z,7.80
2019-04-16T09:23:39.761Z,6.83
2019-04-16T09:26:43.861Z,7.70
2019-04-16T09:29:54.075Z,7.30
2019-04-16T09:33:00.719Z,8.27
2019-04-16T09:36:06.591Z,7.30
2019-04-16T09:39:16.592Z,6.17
2019-04-16T09:42:19.270Z,6.87
2019-04-16T09:45:24.279Z,7.73
2019-04-16T09:48:25.214Z,7.13
2019-04-16T09:51:27.232Z,7.40
2019-04-16T09:54:29.153Z,6.57
2019-04-16T09:57:32.429Z,7.27
2019-04-16T10:00:39.515Z,7.73
2019-04-16T10:03:43.104Z,8.03
2019-04-16T10:06:45.060Z,6.97
2019-04-16T10:09:46.974Z,6.47
2019-04-16T10:12:48.908Z,5.40
2019-04-16T10:15:50.820Z,5.47
2019-04-16T10:18:52.771Z,6.23
2019-04-16T10:21:54.829Z,7.40
2019-04-16T10:25:07.861Z,6.60
2019-04-16T10:28:14.613Z,6.47
2019-04-16T10:31:18.426Z,6.57
2019-04-16T10:34:20.535Z,6.10
2019-04-16T10:37:22.443Z,7.40
2019-04-16T10:40:26.527Z,7.20
2019-04-16T10:43:45.459Z,7.50
2019-04-16T10:46:52.159Z,7.17
2019-04-16T10:49:55.885Z,6.40
2019-04-16T10:53:02.427Z,7.77
2019-04-16T10:56:22.894Z,7.43
2019-04-16T10:59:26.698Z,7.53
2019-04-16T11:02:31.755Z,6.87
2019-04-16T11:05:38.270Z,6.40
2019-04-16T11:08:40.233Z,6.73
2019-04-16T11:11:42.198Z,6.77
2019-04-16T11:14:44.258Z,7.47
2019-04-16T11:17:46.138Z,7.33
2019-04-16T11:20:48.068Z,6.80
2019-04-16T11:23:49.980Z,7.20
2019-04-16T11:26:51.848Z,7.37
2019-04-16T11:29:53.793Z,7.30
2019-04-16T11:32:57.962Z,7.33
2019-04-16T11:36:00.005Z,7.40
2019-04-16T11:39:01.997Z,7.47
2019-04-16T11:42:04.981Z,8.57
2019-04-16T11:45:07.739Z,8.13
2019-04-16T11:48:09.683Z,7.83
2019-04-16T11:51:11.679Z,7.60
2019-04-16T11:54:13.806Z,8.33
2019-04-16T11:57:16.340Z,8.13
2019-04-16T12:00:26.343Z,7.67
2019-04-16T12:03:47.314Z,8.87
2019-04-16T12:06:54.216Z,8.70
2019-04-16T12:10:14.988Z,8.43
2019-04-16T12:13:21.959Z,8.67
2019-04-16T12:16:38.113Z,7.57
2019-04-16T12:19:58.600Z,8.27
2019-04-16T12:23:02.447Z,7.80
2019-04-16T12:26:12.571Z,8.57
2019-04-16T12:29:25.644Z,8.77
2019-04-16T12:32:32.540Z,10.50
2019-04-16T12:35:36.388Z,14.63
2019-04-16T12:38:46.086Z,8.67
2019-04-16T12:41:59.874Z,8.57
2019-04-16T12:45:19.151Z,8.23
2019-04-16T12:48:39.685Z,7.23
2019-04-16T12:51:43.412Z,12.70
2019-04-16T12:55:02.556Z,12.07
2019-04-16T12:58:06.392Z,8.60
2019-04-16T13:01:19.925Z,17.83
2019-04-16T13:04:23.976Z,7.83
2019-04-16T13:07:30.601Z,8.73
2019-04-16T13:10:34.446Z,7.90
2019-04-16T13:13:55.237Z,8.87
2019-04-16T13:17:05.030Z,7.20
2019-04-16T13:20:10.899Z,8.10
2019-04-16T13:23:31.251Z,7.73
2019-04-16T13:26:45.199Z,8.40
2019-04-16T13:29:47.102Z,9.37
2019-04-16T13:32:49.044Z,6.57
2019-04-16T13:35:50.995Z,7.73
2019-04-16T13:38:54.793Z,7.43
2019-04-16T13:41:56.739Z,7.57
2019-04-16T13:45:15.276Z,7.60
2019-04-16T13:48:15.940Z,7.30
2019-04-16T13:51:14.867Z,7.33
2019-04-16T13:54:17.592Z,8.20
2019-04-16T13:57:21.472Z,8.13
2019-04-16T14:00:28.259Z,8.50
2019-04-16T14:03:30.266Z,7.13
2019-04-16T14:06:32.429Z,7.23
2019-04-16T14:09:34.473Z,8.77
2019-04-16T14:12:42.124Z,8.33
2019-04-16T14:15:44.838Z,7.07
2019-04-16T14:18:47.081Z,7.10
2019-04-16T14:21:48.968Z,6.70
2019-04-16T14:24:50.913Z,7.13
2019-04-16T14:27:55.368Z,6.83
2019-04-16T14:30:56.799Z,7.70
2019-04-16T14:34:15.954Z,7.07
2019-04-16T14:37:18.588Z,6.40
2019-04-16T14:40:24.235Z,6.83
2019-04-16T14:43:29.537Z,6.50
2019-04-16T14:46:31.863Z,6.97
2019-04-16T14:49:33.930Z,6.83
2019-04-16T14:52:35.884Z,7.17
2019-04-16T14:55:58.760Z,8.23
2019-04-16T14:59:03.443Z,8.17
2019-04-16T15:02:08.638Z,7.00
2019-04-16T15:05:21.718Z,7.53
2019-04-16T15:08:31.280Z,7.60
2019-04-16T15:11:51.428Z,7.67
2019-04-16T15:14:55.130Z,7.47
2019-04-16T15:18:08.165Z,8.97
2019-04-16T15:21:30.300Z,8.80
2019-04-16T15:24:50.894Z,21.33
2019-04-16T15:28:06.938Z,7.70
2019-04-16T15:31:27.324Z,7.10
2019-04-16T15:34:43.017Z,20.53
2019-04-16T15:37:57.912Z,12.83
2019-04-16T15:41:18.420Z,8.03
2019-04-16T15:44:24.659Z,7.67
2019-04-16T15:47:32.374Z,8.60
2019-04-16T15:50:39.517Z,6.97
2019-04-16T15:53:50.564Z,7.33
2019-04-16T15:57:11.614Z,6.97
2019-04-16T16:00:32.721Z,7.83
2019-04-16T16:03:36.974Z,7.17
2019-04-16T16:06:48.761Z,6.97
2019-04-16T16:09:52.594Z,6.97
2019-04-16T16:12:54.800Z,7.27
2019-04-16T16:15:56.762Z,6.87
2019-04-16T16:18:58.747Z,6.33
2019-04-16T16:22:00.665Z,6.80
2019-04-16T16:25:06.096Z,5.97
2019-04-16T16:28:08.197Z,7.23
2019-04-16T16:31:10.175Z,7.20
2019-04-16T16:34:12.108Z,8.53
2019-04-16T16:37:14.170Z,6.80
2019-04-16T16:40:16.233Z,8.50
2019-04-16T16:43:18.396Z,6.20
2019-04-16T16:46:55.700Z,7.07
2019-04-16T16:49:44.527Z,7.10
2019-04-16T16:52:54.467Z,7.13
2019-04-16T16:55:59.113Z,7.37
2019-04-16T16:59:05.912Z,7.43
2019-04-16T17:02:18.642Z,8.50
2019-04-16T17:05:25.380Z,9.90
2019-04-16T17:08:30.168Z,8.27
2019-04-16T17:11:31.167Z,6.90
2019-04-16T17:14:36.460Z,7.93
2019-04-16T17:17:37.250Z,8.07
2019-04-16T17:20:41.337Z,9.83
2019-04-16T17:23:43.160Z,8.47
2019-04-16T17:26:47.000Z,8.40
2019-04-16T17:29:49.721Z,11.97
2019-04-16T17:32:52.792Z,12.27
2019-04-16T17:35:54.905Z,13.33
2019-04-16T17:38:56.877Z,10.77
2019-04-16T17:42:05.046Z,12.07
2019-04-16T17:45:26.091Z,12.40
2019-04-16T17:48:39.123Z,10.23
2019-04-16T17:51:48.381Z,11.57
2019-04-16T17:54:59.088Z,10.87
2019-04-16T17:58:09.346Z,13.10
2019-04-16T18:01:15.094Z,19.37
2019-04-16T18:04:37.527Z,18.77
2019-04-16T18:07:41.308Z,12.00
2019-04-16T18:10:47.828Z,11.23
2019-04-16T18:13:57.380Z,22.10
2019-04-16T18:17:04.595Z,38.03
2019-04-16T18:20:27.111Z,31.87
2019-04-16T18:23:47.825Z,14.23
2019-04-16T18:27:08.259Z,15.07
2019-04-16T18:30:14.210Z,14.40
2019-04-16T18:33:19.777Z,16.07
2019-04-16T18:36:23.504Z,13.63
2019-04-16T18:39:37.216Z,14.17
2019-04-16T18:42:50.257Z,13.23
2019-04-16T18:46:08.655Z,14.00
2019-04-16T18:49:18.240Z,19.53
2019-04-16T18:52:20.201Z,19.43
2019-04-16T18:55:22.867Z,16.57
2019-04-16T18:58:26.514Z,16.60
2019-04-16T19:01:32.648Z,26.03
2019-04-16T19:04:35.193Z,22.23
2019-04-16T19:07:37.158Z,15.27
2019-04-16T19:10:39.682Z,14.37
2019-04-16T19:13:42.785Z,14.90
2019-04-16T19:16:47.704Z,12.27
2019-04-16T19:19:53.286Z,17.77
2019-04-16T19:22:55.283Z,16.93
2019-04-16T19:25:57.459Z,14.13
2019-04-16T19:28:59.746Z,11.67
2019-04-16T19:32:03.477Z,11.87
2019-04-16T19:35:10.111Z,11.50
2019-04-16T19:38:12.040Z,11.63
2019-04-16T19:41:14.396Z,11.03
2019-04-16T19:44:16.356Z,12.53
2019-04-16T19:47:18.355Z,11.70
2019-04-16T19:50:20.951Z,11.87
2019-04-16T19:53:24.769Z,11.33
2019-04-16T19:56:27.366Z,11.67
2019-04-16T19:59:29.360Z,11.10
2019-04-16T20:02:33.957Z,11.37
2019-04-16T20:05:36.112Z,11.50
2019-04-16T20:08:39.963Z,14.37
2019-04-16T20:11:43.590Z,12.07
2019-04-16T20:14:47.499Z,11.13
2019-04-16T20:17:52.487Z,13.00
2019-04-16T20:20:55.395Z,11.90
2019-04-16T20:23:57.565Z,10.60
2019-04-16T20:27:04.886Z,11.30
2019-04-16T20:30:06.234Z,11.07
2019-04-16T20:33:08.498Z,12.70
2019-04-16T20:36:10.458Z,11.17
2019-04-16T20:39:12.322Z,11.60
2019-04-16T20:42:15.833Z,11.40
2019-04-16T20:45:20.134Z,11.87
2019-04-16T20:48:22.083Z,11.63
2019-04-16T20:51:26.535Z,10.37
2019-04-16T20:54:30.629Z,12.37
2019-04-16T20:57:32.665Z,11.23
2019-04-16T21:00:42.286Z,10.37
2019-04-16T21:03:43.905Z,10.43
2019-04-16T21:06:45.880Z,10.47
2019-04-16T21:09:47.832Z,10.87
2019-04-16T21:12:49.805Z,10.20
2019-04-16T21:15:51.743Z,10.17
2019-04-16T21:18:53.656Z,10.30
2019-04-16T21:21:57.952Z,10.87
2019-04-16T21:24:59.620Z,9.93
2019-04-16T21:28:15.631Z,11.30
2019-04-16T21:31:19.346Z,9.67
2019-04-16T21:34:29.648Z,9.90
2019-04-16T21:37:34.488Z,10.70
2019-04-16T21:40:36.522Z,10.03
2019-04-16T21:43:39.713Z,10.37
2019-04-16T21:46:42.350Z,11.30
2019-04-16T21:49:45.759Z,11.87
2019-04-16T21:52:48.242Z,12.47
2019-04-16T21:55:50.183Z,11.30
2019-04-16T21:58:52.203Z,10.50
2019-04-16T22:01:54.523Z,11.83
2019-04-16T22:04:57.537Z,11.07
2019-04-16T22:07:59.576Z,12.30
2019-04-16T22:11:01.798Z,11.47
2019-04-16T22:14:03.856Z,13.43
2019-04-16T22:17:05.824Z,13.40
2019-04-16T22:20:07.929Z,12.17
2019-04-16T22:23:09.931Z,12.33
2019-04-16T22:26:11.880Z,14.27
2019-04-16T22:29:15.645Z,12.73
2019-04-16T22:32:17.727Z,11.93
2019-04-16T22:35:19.824Z,13.77
2019-04-16T22:38:21.812Z,14.97
2019-04-16T22:41:34.596Z,16.27
2019-04-16T22:44:38.336Z,18.30
2019-04-16T22:47:42.099Z,17.77
2019-04-16T22:50:43.997Z,21.10
2019-04-16T22:53:46.485Z,21.43
2019-04-16T22:57:01.921Z,22.67
2019-04-16T23:00:11.751Z,32.43
2019-04-16T23:03:16.634Z,28.87
2019-04-16T23:06:20.076Z,15.77
2019-04-16T23:09:23.906Z,19.03
2019-04-16T23:12:28.045Z,17.33
2019-04-16T23:15:29.638Z,14.40
2019-04-16T23:18:31.529Z,14.37
2019-04-16T23:21:33.398Z,13.10
2019-04-16T23:24:35.435Z,14.03
2019-04-16T23:27:38.191Z,13.53
2019-04-16T23:30:40.956Z,14.03
2019-04-16T23:33:42.896Z,16.60
2019-04-16T23:36:48.571Z,13.17
2019-04-16T23:39:48.627Z,14.00
2019-04-16T23:42:54.876Z,21.33
2019-04-16T23:46:15.478Z,21.53
2019-04-16T23:49:34.719Z,27.83
2019-04-16T23:52:38.480Z,36.67
2019-04-16T23:56:00.331Z,35.00
2019-04-16T23:59:13.410Z,15.17
